Time;durP1;ratioP1;P1;durP2;ratioP2;P2;SDS_P1;SDS_P2;PMS_P1;PMS_P2;Temp;Humidity;BMP_temperature;BMP_pressure;BME280_temperature;BME280_humidity;BME280_pressure;Samples;Min_cycle;Max_cycle;Signal;HPM_P1;HPM_P2
2023/09/18 00:02:21;;;;;;;8.30;7.28;;;;;;;;;;5066751;28;41764;-72
2023/09/18 00:04:49;;;;;;;8.82;6.55;;;;;;;;;;5065313;28;42843;-72
2023/09/18 00:07:17;;;;;;;8.38;7.00;;;;;;;;;;5067400;28;40350;-72
2023/09/18 00:09:45;;;;;;;9.40;6.53;;;;;;;;;;5065710;28;42707;-72
2023/09/18 00:12:15;;;;;;;8.88;6.88;;;;;;;;;;5066750;28;41845;-72
2023/09/18 00:14:43;;;;;;;11.50;7.53;;;;;;;;;;5065710;28;40852;-72
2023/09/18 00:17:11;;;;;;;8.23;7.35;;;;;;;;;;5068893;28;42962;-72
2023/09/18 00:19:39;;;;;;;7.85;7.15;;;;;;;;;;5067479;28;40120;-72
2023/09/18 00:22:07;;;;;;;8.27;7.47;;;;;;;;;;5070150;28;41278;-72
2023/09/18 00:24:35;;;;;;;8.77;7.88;;;;;;;;;;5061764;28;41774;-71
2023/09/18 00:27:04;;;;;;;8.93;7.65;;;;;;;;;;5070226;28;42402;-72
2023/09/18 00:29:33;;;;;;;9.07;7.63;;;;;;;;;;5070296;28;42679;-72
2023/09/18 00:32:01;;;;;;;8.75;7.50;;;;;;;;;;5068741;28;41922;-72
2023/09/18 00:34:31;;;;;;;9.32;8.20;;;;;;;;;;5068615;28;39271;-72
2023/09/18 00:36:59;;;;;;;13.23;8.15;;;;;;;;;;5070896;28;41743;-72
2023/09/18 00:39:27;;;;;;;10.85;8.23;;;;;;;;;;5068170;28;42412;-72
2023/09/18 00:41:56;;;;;;;9.68;8.00;;;;;;;;;;5071041;28;41577;-71
2023/09/18 00:44:23;;;;;;;10.30;8.40;;;;;;;;;;5068685;28;41350;-72
2023/09/18 00:46:54;;;;;;;9.52;8.63;;;;;;;;;;5070112;28;40039;-72
2023/09/18 00:49:22;;;;;;;8.80;7.90;;;;;;;;;;5068175;28;40065;-72
2023/09/18 00:51:50;;;;;;;9.48;8.57;;;;;;;;;;5064795;28;42300;-71
2023/09/18 00:54:19;;;;;;;11.25;9.25;;;;;;;;;;5062910;28;40606;-72
2023/09/18 00:56:47;;;;;;;9.98;8.98;;;;;;;;;;5068929;28;41066;-73
2023/09/18 00:59:16;;;;;;;10.35;9.25;;;;;;;;;;5069286;28;41121;-71
2023/09/18 01:01:44;;;;;;;8.98;8.10;;;;;;;;;;5068506;28;40276;-72
2023/09/18 01:04:14;;;;;;;10.05;8.32;;;;;;;;;;5069761;28;43882;-72
2023/09/18 01:06:42;;;;;;;10.15;9.10;;;;;;;;;;5068655;28;41622;-72
2023/09/18 01:09:14;;;;;;;9.68;8.75;;;;;;;;;;5067838;28;41041;-72
2023/09/18 01:11:44;;;;;;;9.18;8.27;;;;;;;;;;5065207;28;41933;-71
2023/09/18 01:14:14;;;;;;;9.25;8.30;;;;;;;;;;5068750;28;41365;-72
2023/09/18 01:16:45;;;;;;;10.10;9.10;;;;;;;;;;5067288;28;39864;-72
2023/09/18 01:19:14;;;;;;;10.35;8.63;;;;;;;;;;5068190;28;42092;-71
2023/09/18 01:21:42;;;;;;;9.10;8.20;;;;;;;;;;5066938;28;40319;-72
2023/09/18 01:24:12;;;;;;;9.27;8.25;;;;;;;;;;5067736;28;40138;-72
2023/09/18 01:26:40;;;;;;;9.88;8.88;;;;;;;;;;5069384;28;39997;-72
2023/09/18 01:29:08;;;;;;;10.02;8.85;;;;;;;;;;5067771;28;41492;-71
2023/09/18 01:31:37;;;;;;;10.52;9.05;;;;;;;;;;5069058;28;20276;-72
2023/09/18 01:34:05;;;;;;;11.07;8.80;;;;;;;;;;5069629;28;39869;-72
2023/09/18 01:36:33;;;;;;;10.73;9.55;;;;;;;;;;5068720;28;42119;-72
2023/09/18 01:39:01;;;;;;;10.60;9.10;;;;;;;;;;5069097;28;42341;-72
2023/09/18 01:41:30;;;;;;;12.20;8.93;;;;;;;;;;5066570;28;41280;-71
2023/09/18 01:43:58;;;;;;;9.05;8.15;;;;;;;;;;5068441;28;42550;-72
2023/09/18 01:46:26;;;;;;;9.10;8.20;;;;;;;;;;5057556;28;41846;-71
2023/09/18 01:48:55;;;;;;;9.90;8.57;;;;;;;;;;5068648;28;40822;-71
2023/09/18 01:51:23;;;;;;;10.10;9.07;;;;;;;;;;5064301;28;40624;-72
2023/09/18 01:53:51;;;;;;;12.38;8.80;;;;;;;;;;5059178;28;41410;-72
2023/09/18 01:56:19;;;;;;;9.63;8.60;;;;;;;;;;5098477;28;40304;-71
2023/09/18 01:58:48;;;;;;;10.07;8.70;;;;;;;;;;5066226;28;40835;-72
2023/09/18 02:01:17;;;;;;;11.38;8.43;;;;;;;;;;5067446;28;38912;-71
2023/09/18 02:03:45;;;;;;;10.50;8.70;;;;;;;;;;5066879;28;41883;-71
2023/09/18 02:06:28;;;;;;;10.38;8.45;;;;;;;;;;5067335;28;41666;-71
2023/09/18 02:08:57;;;;;;;9.80;8.80;;;;;;;;;;5068226;28;41398;-72
2023/09/18 02:11:25;;;;;;;11.40;8.20;;;;;;;;;;5066945;28;42026;-72
2023/09/18 02:13:56;;;;;;;11.60;8.70;;;;;;;;;;5067366;28;38897;-72
2023/09/18 02:16:24;;;;;;;9.52;8.63;;;;;;;;;;5067905;28;42680;-72
2023/09/18 02:18:52;;;;;;;8.88;8.05;;;;;;;;;;5068096;28;42865;-71
2023/09/18 02:21:21;;;;;;;9.38;8.48;;;;;;;;;;5067727;28;41376;-72
2023/09/18 02:23:49;;;;;;;9.82;8.30;;;;;;;;;;5068445;28;41807;-72
2023/09/18 02:26:17;;;;;;;12.70;9.02;;;;;;;;;;5067942;28;42085;-72
2023/09/18 02:28:46;;;;;;;9.68;8.45;;;;;;;;;;5068577;28;40514;-71
2023/09/18 02:31:16;;;;;;;9.18;7.95;;;;;;;;;;5069023;28;41608;-72
2023/09/18 02:33:44;;;;;;;11.82;8.40;;;;;;;;;;5067650;28;41324;-71
2023/09/18 02:36:12;;;;;;;11.63;8.25;;;;;;;;;;5067862;28;39640;-71
2023/09/18 02:38:40;;;;;;;9.88;8.13;;;;;;;;;;5066491;28;41250;-71
2023/09/18 02:41:08;;;;;;;10.63;8.13;;;;;;;;;;5068264;28;41946;-71
2023/09/18 02:43:37;;;;;;;12.55;8.60;;;;;;;;;;5066783;28;40424;-71
2023/09/18 02:46:05;;;;;;;10.10;8.00;;;;;;;;;;5066169;28;40768;-71
2023/09/18 02:48:35;;;;;;;11.80;8.35;;;;;;;;;;5067021;28;39470;-71
2023/09/18 02:51:03;;;;;;;8.82;7.93;;;;;;;;;;5063854;28;40230;-71
2023/09/18 02:53:31;;;;;;;10.15;7.90;;;;;;;;;;5065336;28;38661;-72
2023/09/18 02:56:00;;;;;;;9.57;8.00;;;;;;;;;;5066812;28;41719;-71
2023/09/18 02:58:30;;;;;;;8.93;8.02;;;;;;;;;;5067777;28;43084;-72
2023/09/18 03:00:58;;;;;;;8.23;7.15;;;;;;;;;;5066022;28;40414;-71
2023/09/18 03:03:26;;;;;;;10.20;7.82;;;;;;;;;;5066565;28;41419;-72
2023/09/18 03:06:00;;;;;;;9.25;8.07;;;;;;;;;;5062402;28;40342;-72
2023/09/18 03:08:28;;;;;;;10.20;7.85;;;;;;;;;;5070333;28;39915;-72
2023/09/18 03:10:57;;;;;;;10.30;7.60;;;;;;;;;;5087681;28;40080;-72
2023/09/18 03:13:26;;;;;;;9.32;7.38;;;;;;;;;;5067243;28;42225;-72
2023/09/18 03:15:54;;;;;;;10.07;7.53;;;;;;;;;;5066218;28;40343;-72
2023/09/18 03:18:22;;;;;;;8.50;7.63;;;;;;;;;;5065296;28;41497;-71
2023/09/18 03:20:51;;;;;;;9.38;7.15;;;;;;;;;;5064324;28;41103;-72
2023/09/18 03:23:20;;;;;;;13.43;7.72;;;;;;;;;;5064137;28;41550;-71
2023/09/18 03:25:48;;;;;;;9.43;6.93;;;;;;;;;;5065938;28;43095;-71
2023/09/18 03:28:19;;;;;;;10.82;7.18;;;;;;;;;;5078180;28;39246;-71
2023/09/18 03:30:48;;;;;;;8.40;7.05;;;;;;;;;;5064200;28;39143;-71
2023/09/18 03:33:18;;;;;;;8.70;7.78;;;;;;;;;;5064586;28;43144;-71
2023/09/18 03:35:47;;;;;;;8.88;6.47;;;;;;;;;;5064243;28;39713;-72
2023/09/18 03:38:16;;;;;;;8.63;6.90;;;;;;;;;;5066095;28;40756;-72
2023/09/18 03:40:46;;;;;;;11.80;7.70;;;;;;;;;;5065373;28;40086;-73
2023/09/18 03:43:14;;;;;;;9.40;6.90;;;;;;;;;;5065202;28;40245;-72
2023/09/18 03:45:42;;;;;;;8.57;6.88;;;;;;;;;;5065165;28;42199;-73
2023/09/18 03:48:11;;;;;;;8.38;7.00;;;;;;;;;;5065252;28;40671;-73
2023/09/18 03:50:39;;;;;;;8.23;6.93;;;;;;;;;;5064611;28;40329;-73
2023/09/18 03:53:09;;;;;;;9.15;7.20;;;;;;;;;;5065497;28;40630;-73
2023/09/18 03:55:37;;;;;;;9.15;7.35;;;;;;;;;;5066721;28;39717;-72
2023/09/18 03:58:07;;;;;;;11.70;6.35;;;;;;;;;;5067296;28;41409;-72
2023/09/18 04:00:35;;;;;;;10.55;6.72;;;;;;;;;;5067615;28;40130;-73
2023/09/18 04:03:03;;;;;;;7.65;6.88;;;;;;;;;;5065398;28;40056;-72
2023/09/18 04:05:31;;;;;;;8.43;6.93;;;;;;;;;;5066267;28;41984;-72
2023/09/18 04:07:59;;;;;;;8.90;6.68;;;;;;;;;;5065711;28;40015;-72
2023/09/18 04:10:28;;;;;;;8.13;6.38;;;;;;;;;;5065883;28;42237;-72
2023/09/18 04:12:56;;;;;;;9.30;6.43;;;;;;;;;;5067322;28;42129;-72
2023/09/18 04:15:25;;;;;;;11.35;7.35;;;;;;;;;;5065528;28;38709;-72
2023/09/18 04:17:53;;;;;;;9.45;6.55;;;;;;;;;;5066366;28;41803;-73
2023/09/18 04:20:22;;;;;;;8.73;6.50;;;;;;;;;;5065765;28;32413;-72
2023/09/18 04:23:11;;;;;;;9.32;6.60;;;;;;;;;;5065472;28;40194;-72
2023/09/18 04:25:39;;;;;;;9.27;6.20;;;;;;;;;;5061283;28;40734;-73
2023/09/18 04:28:07;;;;;;;9.93;6.35;;;;;;;;;;5049589;28;41290;-72
2023/09/18 04:30:37;;;;;;;7.20;6.00;;;;;;;;;;5096973;28;40226;-72
2023/09/18 04:33:05;;;;;;;6.68;5.88;;;;;;;;;;5064612;28;40493;-73
2023/09/18 04:35:33;;;;;;;7.63;6.15;;;;;;;;;;5064631;28;39879;-73
2023/09/18 04:38:01;;;;;;;6.88;6.00;;;;;;;;;;5065881;28;41849;-72
2023/09/18 04:40:31;;;;;;;10.15;6.15;;;;;;;;;;5063558;28;40954;-72
2023/09/18 04:43:00;;;;;;;7.78;6.28;;;;;;;;;;5065302;28;41223;-72
2023/09/18 04:45:28;;;;;;;7.05;6.05;;;;;;;;;;5065548;28;43065;-73
2023/09/18 04:47:57;;;;;;;7.63;6.03;;;;;;;;;;5066685;28;40952;-72
2023/09/18 04:50:26;;;;;;;7.80;5.88;;;;;;;;;;5065365;28;40960;-72
2023/09/18 04:52:55;;;;;;;6.90;6.03;;;;;;;;;;5061523;28;42072;-72
2023/09/18 04:55:24;;;;;;;9.55;6.40;;;;;;;;;;5064477;28;40146;-71
2023/09/18 04:57:52;;;;;;;10.63;6.10;;;;;;;;;;5064770;28;40810;-72
2023/09/18 05:00:23;;;;;;;6.78;6.07;;;;;;;;;;5061291;28;42410;-71
2023/09/18 05:02:51;;;;;;;8.77;6.40;;;;;;;;;;5047201;28;38994;-71
2023/09/18 05:05:21;;;;;;;10.80;6.22;;;;;;;;;;5063576;28;40619;-71
2023/09/18 05:07:49;;;;;;;7.60;6.22;;;;;;;;;;5054647;28;40900;-72
2023/09/18 05:10:17;;;;;;;8.13;5.85;;;;;;;;;;5067393;28;42622;-71
2023/09/18 05:12:45;;;;;;;7.88;5.78;;;;;;;;;;5061181;28;42658;-72
2023/09/18 05:15:13;;;;;;;8.02;5.90;;;;;;;;;;5064237;28;40473;-72
2023/09/18 05:17:46;;;;;;;9.27;5.80;;;;;;;;;;5068756;28;41614;-72
2023/09/18 05:20:16;;;;;;;7.88;6.13;;;;;;;;;;5054887;28;43393;-72
2023/09/18 05:22:46;;;;;;;10.20;6.10;;;;;;;;;;5063717;28;40583;-71
2023/09/18 05:25:15;;;;;;;7.07;5.72;;;;;;;;;;5070014;28;41788;-71
2023/09/18 05:27:44;;;;;;;8.50;5.63;;;;;;;;;;5069089;28;41153;-71
2023/09/18 05:30:14;;;;;;;8.60;6.32;;;;;;;;;;5069438;28;41678;-72
2023/09/18 05:32:43;;;;;;;13.90;6.90;;;;;;;;;;5062697;28;43002;-71
2023/09/18 05:35:12;;;;;;;9.77;6.43;;;;;;;;;;5068826;28;40196;-71
2023/09/18 05:37:41;;;;;;;6.82;5.82;;;;;;;;;;5069827;28;41569;-71
2023/09/18 05:40:12;;;;;;;10.48;6.10;;;;;;;;;;5069955;28;42116;-70
2023/09/18 05:42:42;;;;;;;10.88;6.40;;;;;;;;;;5065975;28;40938;-69
2023/09/18 05:45:11;;;;;;;14.57;6.80;;;;;;;;;;5065945;28;42085;-69
2023/09/18 05:47:39;;;;;;;10.27;6.47;;;;;;;;;;5068370;28;42462;-70
2023/09/18 05:50:08;;;;;;;11.77;6.57;;;;;;;;;;5068800;28;42391;-69
2023/09/18 05:52:36;;;;;;;11.60;6.70;;;;;;;;;;5067139;28;42941;-70
2023/09/18 05:55:04;;;;;;;10.30;6.32;;;;;;;;;;5058909;28;40975;-69
2023/09/18 05:57:34;;;;;;;12.38;6.60;;;;;;;;;;5064392;28;42589;-69
2023/09/18 06:00:02;;;;;;;10.13;6.45;;;;;;;;;;5068787;28;41755;-70
2023/09/18 06:02:38;;;;;;;22.17;7.43;;;;;;;;;;5067938;28;41841;-69
2023/09/18 06:05:07;;;;;;;10.98;7.10;;;;;;;;;;5068654;28;42318;-69
2023/09/18 06:07:35;;;;;;;8.95;6.40;;;;;;;;;;5067912;28;41630;-69
2023/09/18 06:10:03;;;;;;;10.43;6.80;;;;;;;;;;5068466;28;41070;-70
2023/09/18 06:12:31;;;;;;;9.82;6.32;;;;;;;;;;5067753;28;42230;-69
2023/09/18 06:15:00;;;;;;;9.98;6.90;;;;;;;;;;5068210;28;40790;-69
2023/09/18 06:17:28;;;;;;;7.78;6.28;;;;;;;;;;5067800;28;42052;-68
2023/09/18 06:19:56;;;;;;;12.93;7.05;;;;;;;;;;5068420;28;43090;-69
2023/09/18 06:22:24;;;;;;;8.35;6.40;;;;;;;;;;5068149;28;41566;-69
2023/09/18 06:24:52;;;;;;;9.48;6.75;;;;;;;;;;5067397;28;41286;-69
2023/09/18 06:27:20;;;;;;;10.93;6.68;;;;;;;;;;5068128;28;41867;-70
2023/09/18 06:29:48;;;;;;;14.43;7.53;;;;;;;;;;5068457;28;41464;-69
2023/09/18 06:32:17;;;;;;;10.30;6.72;;;;;;;;;;5067978;28;42997;-69
2023/09/18 06:34:47;;;;;;;13.32;7.13;;;;;;;;;;5066564;28;40134;-69
2023/09/18 06:37:15;;;;;;;11.10;6.53;;;;;;;;;;5054073;28;41469;-68
2023/09/18 06:39:43;;;;;;;11.48;6.93;;;;;;;;;;5067082;28;42610;-68
2023/09/18 06:42:11;;;;;;;10.18;6.55;;;;;;;;;;5068419;28;40498;-69
2023/09/18 06:44:39;;;;;;;12.35;7.07;;;;;;;;;;5068320;28;41289;-69
2023/09/18 06:47:07;;;;;;;8.77;6.80;;;;;;;;;;5066524;28;40514;-69
2023/09/18 06:49:37;;;;;;;11.65;7.07;;;;;;;;;;5067681;28;40272;-69
2023/09/18 06:52:06;;;;;;;9.32;6.20;;;;;;;;;;5068480;28;42576;-69
2023/09/18 06:54:34;;;;;;;9.30;6.82;;;;;;;;;;5067674;28;40982;-69
2023/09/18 06:57:03;;;;;;;9.48;6.38;;;;;;;;;;5068655;28;41934;-70
2023/09/18 06:59:32;;;;;;;8.93;6.50;;;;;;;;;;5067268;28;42064;-69
2023/09/18 07:02:02;;;;;;;10.73;6.20;;;;;;;;;;5068106;28;40963;-71
2023/09/18 07:04:30;;;;;;;10.40;6.07;;;;;;;;;;5067231;28;42384;-68
2023/09/18 07:07:00;;;;;;;12.38;6.07;;;;;;;;;;5067123;28;43218;-68
2023/09/18 07:09:28;;;;;;;13.50;6.63;;;;;;;;;;5067099;28;40442;-69
2023/09/18 07:11:56;;;;;;;12.48;6.30;;;;;;;;;;5068046;28;42095;-69
2023/09/18 07:14:24;;;;;;;10.68;5.70;;;;;;;;;;5066889;28;42077;-68
2023/09/18 07:16:52;;;;;;;10.63;6.22;;;;;;;;;;5067660;28;42639;-70
2023/09/18 07:19:20;;;;;;;11.50;5.65;;;;;;;;;;5067712;28;43111;-69
2023/09/18 07:21:49;;;;;;;16.27;6.63;;;;;;;;;;5067239;28;40184;-69
2023/09/18 07:24:20;;;;;;;13.15;5.50;;;;;;;;;;5065965;28;42284;-69
2023/09/18 07:26:48;;;;;;;11.77;5.90;;;;;;;;;;5065607;28;43093;-70
2023/09/18 07:29:16;;;;;;;17.40;5.60;;;;;;;;;;5067521;28;42313;-70
2023/09/18 07:31:44;;;;;;;12.35;5.00;;;;;;;;;;5067904;28;41586;-70
2023/09/18 07:34:13;;;;;;;16.83;5.63;;;;;;;;;;5067344;28;42001;-70
2023/09/18 07:36:41;;;;;;;13.90;4.90;;;;;;;;;;5067292;28;41627;-69
2023/09/18 07:39:09;;;;;;;12.40;5.57;;;;;;;;;;5067308;28;43062;-69
2023/09/18 07:41:39;;;;;;;14.18;5.10;;;;;;;;;;5065957;28;40101;-68
2023/09/18 07:44:07;;;;;;;15.18;4.80;;;;;;;;;;5067031;28;43538;-70
2023/09/18 07:46:35;;;;;;;15.20;5.75;;;;;;;;;;5061130;28;43005;-70
2023/09/18 07:49:03;;;;;;;16.30;4.63;;;;;;;;;;5063508;28;41023;-70
2023/09/18 07:51:31;;;;;;;17.77;4.97;;;;;;;;;;5066827;28;42031;-70
2023/09/18 07:53:59;;;;;;;11.48;4.63;;;;;;;;;;5067702;28;42420;-69
2023/09/18 07:56:28;;;;;;;20.00;5.53;;;;;;;;;;5066719;28;40300;-70
2023/09/18 07:58:57;;;;;;;11.80;5.10;;;;;;;;;;5067595;28;42717;-69
2023/09/18 08:01:25;;;;;;;19.85;5.22;;;;;;;;;;5057972;28;40556;-70
2023/09/18 08:03:54;;;;;;;23.75;5.13;;;;;;;;;;5065306;28;40131;-69
2023/09/18 08:06:22;;;;;;;22.50;5.38;;;;;;;;;;5066338;28;42585;-70
2023/09/18 08:08:50;;;;;;;13.68;4.30;;;;;;;;;;5067296;28;40196;-71
2023/09/18 08:11:19;;;;;;;25.60;5.53;;;;;;;;;;5066169;28;41718;-69
2023/09/18 08:13:47;;;;;;;20.50;5.53;;;;;;;;;;5066648;28;42183;-70
2023/09/18 08:16:18;;;;;;;37.78;5.47;;;;;;;;;;5061240;28;40433;-71
2023/09/18 08:18:46;;;;;;;27.77;5.13;;;;;;;;;;5056895;28;41514;-69
2023/09/18 08:21:14;;;;;;;50.88;6.07;;;;;;;;;;5066160;28;42177;-71
2023/09/18 08:23:43;;;;;;;24.85;5.22;;;;;;;;;;5063954;28;41251;-71
2023/09/18 08:26:11;;;;;;;12.20;3.92;;;;;;;;;;5067350;28;42598;-71
2023/09/18 08:28:43;;;;;;;21.98;5.07;;;;;;;;;;5067027;28;39677;-72
2023/09/18 08:31:11;;;;;;;23.23;4.90;;;;;;;;;;5066311;28;41880;-71
2023/09/18 08:33:41;;;;;;;23.42;4.10;;;;;;;;;;5066526;28;43137;-71
2023/09/18 08:36:19;;;;;;;18.23;4.13;;;;;;;;;;5064825;28;40231;-71
2023/09/18 08:38:49;;;;;;;16.88;3.75;;;;;;;;;;5065093;28;41195;-72
2023/09/18 08:41:19;;;;;;;12.75;3.95;;;;;;;;;;5068882;28;43190;-71
2023/09/18 08:43:47;;;;;;;7.13;3.05;;;;;;;;;;5067573;28;41204;-72
2023/09/18 08:46:15;;;;;;;11.05;3.22;;;;;;;;;;5066540;28;42059;-72
2023/09/18 08:48:44;;;;;;;14.63;2.80;;;;;;;;;;5051854;28;40890;-72
2023/09/18 08:51:12;;;;;;;5.28;2.50;;;;;;;;;;5053616;28;41607;-71
2023/09/18 08:53:40;;;;;;;6.38;3.05;;;;;;;;;;5058739;28;43189;-71
2023/09/18 08:56:09;;;;;;;5.13;2.50;;;;;;;;;;5068054;28;41463;-71
2023/09/18 08:58:39;;;;;;;5.97;2.83;;;;;;;;;;5068761;28;42682;-73
2023/09/18 09:01:09;;;;;;;8.18;2.90;;;;;;;;;;5064414;28;42537;-72
2023/09/18 09:03:38;;;;;;;9.63;2.97;;;;;;;;;;5068947;28;40180;-72
2023/09/18 09:06:07;;;;;;;6.63;2.92;;;;;;;;;;5068500;28;41686;-71
2023/09/18 09:08:35;;;;;;;6.05;2.50;;;;;;;;;;5068809;28;41635;-71
2023/09/18 09:11:03;;;;;;;5.00;2.70;;;;;;;;;;5069744;28;42399;-71
2023/09/18 09:13:31;;;;;;;3.17;2.10;;;;;;;;;;5068118;28;43211;-71
2023/09/18 09:16:13;;;;;;;4.80;2.42;;;;;;;;;;5069424;28;40467;-71
2023/09/18 09:18:48;;;;;;;7.40;2.60;;;;;;;;;;5065376;28;41208;-70
2023/09/18 09:21:17;;;;;;;3.60;2.17;;;;;;;;;;5065073;28;42055;-70
2023/09/18 09:23:48;;;;;;;5.15;1.80;;;;;;;;;;5068672;28;40261;-71
2023/09/18 09:26:16;;;;;;;4.22;2.05;;;;;;;;;;5068311;28;40560;-71
2023/09/18 09:28:45;;;;;;;4.70;2.05;;;;;;;;;;5068282;28;40051;-71
2023/09/18 09:31:13;;;;;;;6.35;2.42;;;;;;;;;;5068844;28;41342;-70
2023/09/18 09:33:43;;;;;;;7.70;2.63;;;;;;;;;;5068006;28;41980;-71
2023/09/18 09:36:11;;;;;;;7.13;2.25;;;;;;;;;;5067600;28;38793;-71
2023/09/18 09:38:41;;;;;;;5.07;2.08;;;;;;;;;;5068087;28;41645;-71
2023/09/18 09:41:09;;;;;;;8.82;2.00;;;;;;;;;;5068499;28;42853;-72
2023/09/18 09:43:38;;;;;;;4.57;1.90;;;;;;;;;;5067738;28;41422;-72
2023/09/18 09:46:06;;;;;;;4.78;2.20;;;;;;;;;;5068876;28;43885;-71
2023/09/18 09:48:34;;;;;;;8.75;2.10;;;;;;;;;;5068182;28;42090;-71
2023/09/18 09:51:03;;;;;;;4.95;1.80;;;;;;;;;;5068406;28;42665;-71
2023/09/18 09:53:44;;;;;;;7.78;2.00;;;;;;;;;;5067998;28;42644;-72
2023/09/18 09:56:13;;;;;;;10.20;1.80;;;;;;;;;;5068229;28;40295;-72
2023/09/18 09:58:43;;;;;;;7.68;2.25;;;;;;;;;;5068222;28;42343;-71
2023/09/18 10:01:17;;;;;;;3.85;1.90;;;;;;;;;;5066697;28;41801;-72
2023/09/18 10:03:46;;;;;;;2.45;1.83;;;;;;;;;;5064839;28;40465;-71
2023/09/18 10:06:14;;;;;;;3.00;1.90;;;;;;;;;;5068545;28;42383;-71
2023/09/18 10:08:44;;;;;;;2.30;1.60;;;;;;;;;;5068010;28;42046;-71
2023/09/18 10:11:16;;;;;;;1.95;1.52;;;;;;;;;;5068915;28;41188;-71
2023/09/18 10:13:49;;;;;;;5.63;2.05;;;;;;;;;;5068216;28;42385;-71
2023/09/18 10:16:19;;;;;;;4.00;1.90;;;;;;;;;;5066905;28;41379;-71
2023/09/18 10:18:52;;;;;;;2.58;2.13;;;;;;;;;;5065078;28;41250;-71
2023/09/18 10:21:23;;;;;;;4.75;1.98;;;;;;;;;;5062284;28;41842;-71
2023/09/18 10:23:54;;;;;;;5.90;3.28;;;;;;;;;;5067591;28;41123;-71
2023/09/18 10:26:24;;;;;;;4.07;2.90;;;;;;;;;;5065094;28;41850;-71
2023/09/18 10:28:55;;;;;;;3.60;3.20;;;;;;;;;;5068287;28;42988;-71
2023/09/18 10:31:24;;;;;;;8.32;4.80;;;;;;;;;;5065115;28;40554;-71
2023/09/18 10:33:53;;;;;;;10.23;4.00;;;;;;;;;;5068449;28;41586;-72
2023/09/18 10:36:22;;;;;;;9.48;3.65;;;;;;;;;;5068537;28;40760;-71
2023/09/18 10:38:51;;;;;;;10.07;5.40;;;;;;;;;;5067441;28;41768;-71
2023/09/18 10:41:21;;;;;;;16.42;6.18;;;;;;;;;;5068184;28;42255;-72
2023/09/18 10:43:52;;;;;;;13.25;8.07;;;;;;;;;;5067806;28;40605;-72
2023/09/18 10:46:20;;;;;;;13.93;6.35;;;;;;;;;;5065781;28;42606;-72
2023/09/18 10:48:48;;;;;;;16.30;5.55;;;;;;;;;;5066227;28;41525;-72
2023/09/18 10:51:16;;;;;;;16.15;5.60;;;;;;;;;;5067745;28;40682;-71
2023/09/18 10:53:44;;;;;;;14.13;4.43;;;;;;;;;;5067483;28;41659;-72
2023/09/18 10:56:15;;;;;;;12.73;3.70;;;;;;;;;;5068169;28;41290;-73
2023/09/18 10:58:45;;;;;;;11.63;3.58;;;;;;;;;;5066805;28;42304;-72
2023/09/18 11:01:13;;;;;;;13.50;3.65;;;;;;;;;;5063436;28;41497;-71
2023/09/18 11:03:41;;;;;;;10.20;2.70;;;;;;;;;;5067358;28;40452;-71
2023/09/18 11:06:10;;;;;;;5.88;2.67;;;;;;;;;;5066957;28;42326;-71
2023/09/18 11:08:43;;;;;;;3.90;2.15;;;;;;;;;;5066857;28;41854;-71
2023/09/18 11:11:14;;;;;;;5.97;2.47;;;;;;;;;;5064119;28;40791;-71
2023/09/18 11:13:43;;;;;;;10.65;2.83;;;;;;;;;;5054920;28;40947;-72
2023/09/18 11:16:19;;;;;;;7.43;2.58;;;;;;;;;;5068359;28;41917;-72
2023/09/18 11:18:53;;;;;;;26.98;2.92;;;;;;;;;;5057729;28;40516;-71
2023/09/18 11:21:24;;;;;;;19.20;3.13;;;;;;;;;;5063193;28;43144;-71
2023/09/18 11:23:58;;;;;;;24.40;2.88;;;;;;;;;;5063229;28;40159;-72
2023/09/18 11:26:29;;;;;;;42.88;4.03;;;;;;;;;;5065291;28;41213;-73
2023/09/18 11:28:57;;;;;;;17.52;3.35;;;;;;;;;;5059069;28;42278;-73
2023/09/18 11:31:40;;;;;;;17.60;2.42;;;;;;;;;;5064600;28;40373;-73
2023/09/18 11:34:13;;;;;;;9.45;2.63;;;;;;;;;;5054356;28;42794;-73
2023/09/18 11:36:41;;;;;;;16.15;2.80;;;;;;;;;;5057494;28;41733;-71
2023/09/18 11:39:11;;;;;;;19.05;3.33;;;;;;;;;;5066382;28;41326;-74
2023/09/18 11:41:39;;;;;;;12.15;2.70;;;;;;;;;;5066075;28;41800;-74
2023/09/18 11:44:40;;;;;;;23.25;2.63;;;;;;;;;;5066891;28;40574;-72
2023/09/18 11:47:12;;;;;;;10.80;2.90;;;;;;;;;;5021652;28;41957;-73
2023/09/18 11:49:43;;;;;;;10.35;2.42;;;;;;;;;;5053507;28;40828;-74
2023/09/18 11:52:12;;;;;;;15.77;2.30;;;;;;;;;;5067685;28;40274;-75
2023/09/18 11:54:41;;;;;;;8.68;3.20;;;;;;;;;;5064124;28;40972;-75
2023/09/18 11:57:09;;;;;;;6.88;2.90;;;;;;;;;;5067289;28;41472;-75
2023/09/18 11:59:38;;;;;;;10.20;2.80;;;;;;;;;;5066772;28;40381;-73
2023/09/18 12:02:20;;;;;;;9.73;3.10;;;;;;;;;;5077721;28;40215;-69
2023/09/18 12:04:49;;;;;;;16.38;2.95;;;;;;;;;;5059833;28;42358;-69
2023/09/18 12:07:17;;;;;;;11.45;2.78;;;;;;;;;;5059077;28;41243;-69
2023/09/18 12:09:45;;;;;;;12.00;2.80;;;;;;;;;;5065516;28;42400;-70
2023/09/18 12:12:14;;;;;;;14.93;2.75;;;;;;;;;;5066059;28;41137;-69
2023/09/18 12:14:44;;;;;;;6.50;2.28;;;;;;;;;;5069415;28;41414;-70
2023/09/18 12:17:15;;;;;;;8.00;2.90;;;;;;;;;;5069082;28;42155;-69
2023/09/18 12:19:53;;;;;;;10.82;3.05;;;;;;;;;;5069474;28;39733;-69
2023/09/18 12:22:24;;;;;;;7.30;2.60;;;;;;;;;;5066520;28;41932;-69
2023/09/18 12:24:52;;;;;;;5.93;2.60;;;;;;;;;;5069583;28;41735;-69
2023/09/18 12:27:20;;;;;;;4.18;2.80;;;;;;;;;;5069237;28;41901;-69
2023/09/18 12:29:48;;;;;;;7.93;2.90;;;;;;;;;;5069093;28;42784;-72
2023/09/18 12:32:16;;;;;;;12.48;2.88;;;;;;;;;;5070031;28;40764;-72
2023/09/18 12:34:44;;;;;;;3.97;2.25;;;;;;;;;;5069537;28;41227;-72
2023/09/18 12:37:13;;;;;;;10.05;3.28;;;;;;;;;;5069226;28;42092;-73
2023/09/18 12:39:41;;;;;;;5.70;2.35;;;;;;;;;;5068156;28;39307;-72
2023/09/18 12:42:09;;;;;;;7.70;3.00;;;;;;;;;;5068365;28;41657;-72
2023/09/18 12:44:37;;;;;;;4.25;2.50;;;;;;;;;;5068437;28;42203;-72
2023/09/18 12:47:05;;;;;;;6.95;2.42;;;;;;;;;;5070557;28;39925;-69
2023/09/18 12:49:34;;;;;;;8.85;2.72;;;;;;;;;;5069622;28;43163;-72
2023/09/18 12:52:02;;;;;;;5.97;2.67;;;;;;;;;;5068860;28;39911;-70
2023/09/18 12:54:39;;;;;;;12.90;3.10;;;;;;;;;;5068961;28;42189;-74
2023/09/18 12:57:07;;;;;;;10.77;3.15;;;;;;;;;;5066641;28;42098;-75
2023/09/18 12:59:36;;;;;;;10.20;2.85;;;;;;;;;;5068333;28;41550;-73
2023/09/18 13:02:04;;;;;;;7.10;3.05;;;;;;;;;;5069312;28;41938;-73
2023/09/18 13:04:36;;;;;;;5.80;3.05;;;;;;;;;;5068870;28;42623;-73
2023/09/18 13:07:10;;;;;;;10.63;3.42;;;;;;;;;;5060940;28;40238;-74
2023/09/18 13:09:38;;;;;;;9.15;3.50;;;;;;;;;;5069156;28;41949;-75
2023/09/18 13:12:08;;;;;;;11.80;3.05;;;;;;;;;;5066004;28;40276;-70
2023/09/18 13:14:54;;;;;;;9.93;3.03;;;;;;;;;;5063107;28;42618;-73
2023/09/18 13:17:23;;;;;;;7.25;2.67;;;;;;;;;;5066332;28;43170;-73
2023/09/18 13:19:52;;;;;;;5.05;2.72;;;;;;;;;;5067694;28;41805;-73
2023/09/18 13:22:24;;;;;;;6.80;2.80;;;;;;;;;;5068552;28;42357;-73
2023/09/18 13:24:56;;;;;;;8.52;2.95;;;;;;;;;;5066388;28;41933;-71
2023/09/18 13:27:25;;;;;;;4.60;2.53;;;;;;;;;;5064562;28;40018;-71
2023/09/18 13:29:54;;;;;;;4.35;2.65;;;;;;;;;;5061821;28;41727;-70
2023/09/18 13:32:22;;;;;;;7.88;2.65;;;;;;;;;;5067085;28;39694;-70
2023/09/18 13:34:50;;;;;;;19.13;3.10;;;;;;;;;;5056397;28;41416;-73
2023/09/18 13:37:20;;;;;;;9.75;3.08;;;;;;;;;;5068337;28;41690;-73
2023/09/18 13:39:48;;;;;;;6.32;2.83;;;;;;;;;;5067747;28;40830;-71
2023/09/18 13:42:16;;;;;;;6.45;3.50;;;;;;;;;;5064502;28;41434;-72
2023/09/18 13:44:46;;;;;;;12.35;3.13;;;;;;;;;;5061685;28;41500;-73
2023/09/18 13:47:15;;;;;;;6.45;2.90;;;;;;;;;;5062050;28;40425;-73
2023/09/18 13:49:43;;;;;;;6.30;2.95;;;;;;;;;;5065272;28;41659;-73
2023/09/18 13:52:11;;;;;;;4.85;2.40;;;;;;;;;;5060732;28;42072;-71
2023/09/18 13:54:40;;;;;;;4.63;2.58;;;;;;;;;;5066630;28;42062;-72
2023/09/18 13:57:08;;;;;;;8.45;2.47;;;;;;;;;;5068451;28;42043;-72
2023/09/18 13:59:37;;;;;;;5.50;2.72;;;;;;;;;;5068369;28;40305;-72
2023/09/18 14:02:08;;;;;;;10.07;3.17;;;;;;;;;;5067948;28;41850;-74
2023/09/18 14:04:36;;;;;;;6.82;2.80;;;;;;;;;;5064928;28;41955;-72
2023/09/18 14:07:04;;;;;;;4.82;2.85;;;;;;;;;;5067269;28;40431;-73
2023/09/18 14:09:32;;;;;;;6.95;3.05;;;;;;;;;;5067290;28;42640;-73
2023/09/18 14:12:00;;;;;;;7.22;2.42;;;;;;;;;;5068522;28;41668;-70
2023/09/18 14:14:28;;;;;;;11.05;2.65;;;;;;;;;;5068091;28;40157;-71
2023/09/18 14:16:57;;;;;;;6.80;3.05;;;;;;;;;;5065798;28;43000;-70
2023/09/18 14:19:26;;;;;;;15.57;3.00;;;;;;;;;;5068097;28;40587;-73
2023/09/18 14:21:54;;;;;;;16.80;2.60;;;;;;;;;;5067983;28;41502;-71
2023/09/18 14:24:25;;;;;;;5.15;2.38;;;;;;;;;;5066440;28;42965;-72
2023/09/18 14:26:55;;;;;;;9.13;2.72;;;;;;;;;;5064350;28;40873;-70
2023/09/18 14:29:23;;;;;;;7.25;2.72;;;;;;;;;;5061779;28;41878;-73
2023/09/18 14:31:51;;;;;;;6.50;2.60;;;;;;;;;;5060972;28;41899;-71
2023/09/18 14:34:19;;;;;;;6.85;2.35;;;;;;;;;;5061809;28;41638;-71
2023/09/18 14:36:48;;;;;;;6.07;2.53;;;;;;;;;;5059488;28;41463;-70
2023/09/18 14:39:16;;;;;;;4.40;2.63;;;;;;;;;;5062631;28;40406;-70
2023/09/18 14:41:44;;;;;;;7.53;3.13;;;;;;;;;;5062148;28;41758;-69
2023/09/18 14:44:12;;;;;;;6.97;3.20;;;;;;;;;;5061645;28;41630;-70
2023/09/18 14:46:40;;;;;;;8.95;2.55;;;;;;;;;;5063921;28;40720;-71
2023/09/18 14:49:09;;;;;;;6.47;2.50;;;;;;;;;;5062935;28;42098;-71
2023/09/18 14:51:37;;;;;;;7.65;2.67;;;;;;;;;;5062633;28;41230;-71